Time;durP1;ratioP1;P1;durP2;ratioP2;P2;SDS_P1;SDS_P2;PMS_P1;PMS_P2;Temp;Humidity;BMP_temperature;BMP_pressure;BME280_temperature;BME280_humidity;BME280_pressure;Samples;Min_cycle;Max_cycle;Signal;HPM_P1;HPM_P2
2023/03/20 00:00:07;;;;;;;28.63;13.30;;;;;;;6.95;100.00;95670.06;5024745;28;20825;-73
2023/03/20 00:02:54;;;;;;;32.17;12.55;;;;;;;6.84;100.00;95661.28;5027648;28;20830;-73
2023/03/20 00:05:22;;;;;;;24.45;12.32;;;;;;;6.86;100.00;95663.66;5026952;28;20069;-71
2023/03/20 00:07:48;;;;;;;30.25;11.77;;;;;;;6.87;100.00;95670.50;5027790;28;20110;-73
2023/03/20 00:10:15;;;;;;;21.38;11.27;;;;;;;6.86;100.00;95672.31;5027645;28;20046;-72
2023/03/20 00:12:42;;;;;;;23.15;10.43;;;;;;;6.86;100.00;95671.53;5027776;28;20072;-73
2023/03/20 00:15:32;;;;;;;17.90;10.10;;;;;;;6.87;100.00;95675.72;5042073;28;20095;-73
2023/03/20 00:18:05;;;;;;;17.25;8.70;;;;;;;6.87;100.00;95675.72;5035654;28;20051;-73
2023/03/20 00:20:30;;;;;;;13.68;8.23;;;;;;;6.90;100.00;95670.78;5028437;28;20056;-73
2023/03/20 00:22:56;;;;;;;18.52;7.93;;;;;;;6.84;100.00;95668.34;5024682;28;20033;-73
2023/03/20 00:25:24;;;;;;;11.90;7.20;;;;;;;6.85;100.00;95668.13;5027561;28;20041;-73
2023/03/20 00:27:50;;;;;;;9.63;6.25;;;;;;;6.91;100.00;95676.81;5026989;28;20176;-73
2023/03/20 00:30:27;;;;;;;11.05;7.05;;;;;;;6.83;100.00;95674.63;5028049;28;20095;-73
2023/03/20 00:32:54;;;;;;;9.25;5.45;;;;;;;6.92;100.00;95673.16;5024266;28;20045;-73
2023/03/20 00:35:26;;;;;;;8.43;5.32;;;;;;;6.78;100.00;95677.97;5023855;28;20038;-73
2023/03/20 00:37:53;;;;;;;8.95;5.55;;;;;;;6.80;100.00;95669.88;5027163;28;20102;-73
2023/03/20 00:40:20;;;;;;;9.65;5.85;;;;;;;6.76;100.00;95670.34;5027661;28;20464;-73
2023/03/20 00:42:50;;;;;;;8.45;4.97;;;;;;;6.82;100.00;95667.78;5019427;28;20056;-73
2023/03/20 00:45:19;;;;;;;7.03;4.93;;;;;;;6.74;100.00;95664.56;5027045;28;20038;-73
2023/03/20 00:47:47;;;;;;;7.50;5.13;;;;;;;6.74;100.00;95664.56;5025579;28;20037;-72
2023/03/20 00:50:15;;;;;;;8.93;4.78;;;;;;;6.72;100.00;95664.03;5028444;28;20041;-73
2023/03/20 00:52:41;;;;;;;8.52;4.78;;;;;;;6.78;100.00;95661.47;5023137;28;20118;-73
2023/03/20 00:55:07;;;;;;;7.40;4.82;;;;;;;6.73;100.00;95670.81;5027288;28;20545;-73
2023/03/20 00:57:46;;;;;;;8.30;5.20;;;;;;;6.72;100.00;95668.44;5026333;28;20373;-73
2023/03/20 01:00:19;;;;;;;7.93;4.07;;;;;;;6.73;100.00;95678.66;5019389;28;20045;-74
2023/03/20 01:02:45;;;;;;;7.82;4.75;;;;;;;6.71;100.00;95678.13;5026381;28;20044;-71
2023/03/20 01:05:11;;;;;;;6.60;4.60;;;;;;;6.74;100.00;95664.56;5025270;28;20072;-72
2023/03/20 01:07:38;;;;;;;9.50;5.20;;;;;;;6.68;100.00;95672.56;5025449;28;20398;-71
2023/03/20 01:10:04;;;;;;;8.27;4.70;;;;;;;6.65;100.00;95671.25;5028558;28;20041;-74
2023/03/20 01:12:30;;;;;;;6.85;4.88;;;;;;;6.71;100.00;95667.66;5024390;28;20044;-74
2023/03/20 01:14:57;;;;;;;8.10;4.82;;;;;;;6.72;100.00;95671.88;5029911;28;20033;-74
2023/03/20 01:17:24;;;;;;;6.63;4.97;;;;;;;6.69;100.00;95672.31;5024991;28;20690;-74
2023/03/20 01:19:50;;;;;;;9.93;5.38;;;;;;;6.65;100.00;95668.63;5024329;28;20037;-74
2023/03/20 01:22:19;;;;;;;8.52;5.88;;;;;;;6.70;100.00;95671.31;5022366;28;20038;-73
2023/03/20 01:24:46;;;;;;;9.27;6.03;;;;;;;6.67;100.00;95666.56;5029598;28;20447;-73
2023/03/20 01:27:14;;;;;;;8.20;5.38;;;;;;;6.64;100.00;95661.81;5029876;28;20535;-73
2023/03/20 01:29:40;;;;;;;9.40;5.40;;;;;;;6.63;100.00;95668.06;5025595;28;20050;-72
2023/03/20 01:32:15;;;;;;;8.52;5.70;;;;;;;6.80;100.00;95680.34;5023464;28;20112;-73
2023/03/20 01:34:41;;;;;;;10.38;5.38;;;;;;;6.72;100.00;95674.47;5024532;28;20045;-72
2023/03/20 01:37:26;;;;;;;10.57;5.80;;;;;;;6.68;100.00;95678.59;5030873;28;20048;-73
2023/03/20 01:39:54;;;;;;;11.43;6.10;;;;;;;6.65;100.00;95668.63;5029093;28;20061;-74
2023/03/20 01:42:19;;;;;;;9.20;5.63;;;;;;;6.81;100.00;95676.66;5017208;28;20398;-73
2023/03/20 01:44:45;;;;;;;9.77;6.15;;;;;;;6.72;100.00;95679.72;5026808;28;20167;-73
2023/03/20 01:47:16;;;;;;;12.95;5.63;;;;;;;6.68;100.00;95672.56;5026607;28;20045;-73
2023/03/20 01:50:17;;;;;;;11.77;6.65;;;;;;;6.62;100.00;95674.31;5029738;28;20696;-73
2023/03/20 01:52:43;;;;;;;8.57;6.00;;;;;;;6.61;100.00;95677.97;5025202;28;20056;-74
2023/03/20 01:55:08;;;;;;;11.95;6.10;;;;;;;6.57;100.00;95671.66;5029026;28;20500;-74
2023/03/20 01:57:36;;;;;;;11.15;6.15;;;;;;;6.61;100.00;95667.53;5027906;28;20037;-74
2023/03/20 02:00:12;;;;;;;13.43;6.50;;;;;;;6.61;100.00;95667.53;5029630;28;20037;-73
2023/03/20 02:02:39;;;;;;;13.20;5.72;;;;;;;6.56;100.00;95659.59;5025304;28;20120;-73
2023/03/20 02:05:08;;;;;;;18.38;6.95;;;;;;;6.56;100.00;95664.81;5025581;28;20493;-73
2023/03/20 02:07:35;;;;;;;10.05;5.97;;;;;;;6.56;100.00;95670.06;5027627;28;20050;-73
2023/03/20 02:10:04;;;;;;;10.27;5.72;;;;;;;6.61;100.00;95672.75;5029284;28;20033;-73
2023/03/20 02:12:30;;;;;;;10.85;6.13;;;;;;;6.58;100.00;95665.41;5027106;28;20643;-73
2023/03/20 02:14:57;;;;;;;11.45;6.28;;;;;;;6.62;100.00;95671.69;5028023;28;20037;-73
2023/03/20 02:17:23;;;;;;;10.82;6.00;;;;;;;6.57;100.00;95667.19;5028025;28;20045;-73
2023/03/20 02:20:03;;;;;;;9.95;5.85;;;;;;;6.56;100.00;95675.28;5029380;28;20052;-73
2023/03/20 02:22:53;;;;;;;11.77;5.78;;;;;;;6.64;100.00;95667.03;5030383;28;20052;-73
2023/03/20 02:25:55;;;;;;;11.15;5.85;;;;;;;6.51;100.00;95670.00;5025761;28;20042;-73
2023/03/20 02:28:30;;;;;;;10.48;5.20;;;;;;;6.52;100.00;95671.56;5022349;28;20428;-73
2023/03/20 02:31:01;;;;;;;10.48;5.60;;;;;;;6.48;100.00;95673.06;5027252;28;20037;-73
2023/03/20 02:33:55;;;;;;;11.57;5.85;;;;;;;6.47;100.00;95666.28;5027330;28;20581;-73
2023/03/20 02:36:40;;;;;;;10.52;6.00;;;;;;;6.50;100.00;95666.56;5027458;28;20497;-73
2023/03/20 02:39:14;;;;;;;10.15;5.65;;;;;;;6.58;100.00;95662.78;5029060;28;20091;-73
2023/03/20 02:42:02;;;;;;;11.38;5.45;;;;;;;6.59;100.00;95669.56;5027734;28;20034;-73
2023/03/20 02:45:29;;;;;;;11.00;5.85;;;;;;;6.55;100.00;95668.47;5022193;28;20046;-73
2023/03/20 02:48:15;;;;;;;11.63;6.35;;;;;;;6.49;100.00;95672.03;4993417;28;20051;-73
2023/03/20 02:50:48;;;;;;;10.82;6.03;;;;;;;6.54;100.00;95667.69;5028694;28;20065;-73
2023/03/20 02:53:39;;;;;;;15.43;6.40;;;;;;;6.47;100.00;95663.66;5019972;28;20037;-73
2023/03/20 02:56:17;;;;;;;11.10;5.82;;;;;;;6.49;100.00;95666.81;5020019;28;20045;-73
2023/03/20 02:59:01;;;;;;;12.50;6.28;;;;;;;6.46;100.00;95669.91;5029080;28;20434;-73
2023/03/20 03:01:55;;;;;;;15.65;6.57;;;;;;;6.48;100.00;95670.44;5021898;28;20413;-73
2023/03/20 03:04:26;;;;;;;11.45;6.22;;;;;;;6.40;100.00;95672.44;5023753;28;20509;-74
2023/03/20 03:06:55;;;;;;;12.55;6.30;;;;;;;6.48;100.00;95673.06;5025626;28;20462;-74
2023/03/20 03:09:27;;;;;;;11.60;6.30;;;;;;;6.45;100.00;95678.78;5025452;28;20042;-72
2023/03/20 03:11:59;;;;;;;14.55;6.82;;;;;;;6.41;100.00;95674.03;5020535;28;20037;-74
2023/03/20 03:14:33;;;;;;;13.18;7.63;;;;;;;6.43;100.00;95675.63;5026256;28;20046;-74
2023/03/20 03:17:01;;;;;;;15.48;7.57;;;;;;;6.36;100.00;95671.31;5028856;28;20146;-74
2023/03/20 03:19:28;;;;;;;12.57;6.63;;;;;;;6.51;100.00;95672.59;5024306;28;20033;-73
2023/03/20 03:21:53;;;;;;;14.30;6.78;;;;;;;6.39;100.00;95670.88;5026286;28;20046;-74
2023/03/20 03:24:23;;;;;;;16.42;7.50;;;;;;;6.34;100.00;95668.16;5028332;28;20041;-74
2023/03/20 03:26:49;;;;;;;14.75;7.78;;;;;;;6.32;100.00;95665.00;5023006;28;21223;-73
2023/03/20 03:29:18;;;;;;;15.98;7.53;;;;;;;6.41;100.00;95668.78;5027376;28;20037;-73
2023/03/20 03:31:45;;;;;;;16.42;7.65;;;;;;;6.38;100.00;95664.06;5027820;28;20099;-74
2023/03/20 03:34:14;;;;;;;15.13;7.78;;;;;;;6.42;100.00;95674.81;5024208;28;20038;-73
2023/03/20 03:36:51;;;;;;;13.40;7.03;;;;;;;6.40;100.00;95677.66;5027221;28;20175;-74
2023/03/20 03:39:42;;;;;;;14.68;7.85;;;;;;;6.39;100.00;95681.31;5022427;28;20051;-73
2023/03/20 03:42:10;;;;;;;16.73;7.28;;;;;;;6.37;100.00;95678.13;5027586;28;20420;-74
2023/03/20 03:45:02;;;;;;;15.60;7.75;;;;;;;6.35;100.00;95684.63;5022497;28;20037;-73
2023/03/20 03:47:40;;;;;;;13.98;7.38;;;;;;;6.39;100.00;95691.78;5022531;28;20129;-74
2023/03/20 03:50:28;;;;;;;14.73;6.85;;;;;;;6.36;100.00;95692.22;5029418;28;20042;-74
2023/03/20 03:52:58;;;;;;;11.98;7.45;;;;;;;6.37;100.00;95683.38;5020586;28;20101;-74
2023/03/20 03:55:27;;;;;;;17.55;7.88;;;;;;;6.38;100.00;95690.19;5027672;28;20052;-73
2023/03/20 03:58:01;;;;;;;15.73;7.50;;;;;;;6.36;100.00;95681.00;5030017;28;20106;-73
2023/03/20 04:00:27;;;;;;;17.38;7.97;;;;;;;6.33;100.00;95687.47;5045924;28;20070;-72
2023/03/20 04:02:55;;;;;;;14.60;7.50;;;;;;;6.35;100.00;95685.44;5053381;28;20045;-71
2023/03/20 04:05:24;;;;;;;14.73;7.50;;;;;;;6.32;100.00;95685.91;5048329;28;20029;-71
2023/03/20 04:07:54;;;;;;;13.68;7.63;;;;;;;6.39;100.00;95706.66;5055108;28;20037;-71
2023/03/20 04:10:20;;;;;;;15.23;8.05;;;;;;;6.38;100.00;95700.66;5054698;28;20022;-72
2023/03/20 04:12:46;;;;;;;18.13;7.72;;;;;;;6.41;100.00;95710.63;5047453;28;20089;-72
2023/03/20 04:15:13;;;;;;;15.77;8.95;;;;;;;6.38;100.00;95711.09;5053800;28;20056;-71
2023/03/20 04:17:39;;;;;;;17.98;7.78;;;;;;;6.36;100.00;95712.38;5055129;28;20032;-72
2023/03/20 04:20:06;;;;;;;14.25;7.63;;;;;;;6.40;100.00;95713.47;5055235;28;20033;-71
2023/03/20 04:22:33;;;;;;;14.18;7.80;;;;;;;6.39;100.00;95710.09;5032965;28;20416;-73
2023/03/20 04:25:01;;;;;;;14.68;7.20;;;;;;;6.49;100.00;95716.50;5018936;28;20049;-74
2023/03/20 04:27:27;;;;;;;13.77;6.95;;;;;;;6.49;100.00;95716.50;5028268;28;20048;-74
2023/03/20 04:29:53;;;;;;;11.50;6.72;;;;;;;6.54;100.00;95719.19;5025875;28;20038;-73
2023/03/20 04:32:19;;;;;;;15.73;7.45;;;;;;;6.53;100.00;95720.22;5027900;28;20087;-73
2023/03/20 04:34:44;;;;;;;14.32;6.90;;;;;;;6.49;100.00;95716.50;5014480;28;20037;-72
2023/03/20 04:37:10;;;;;;;16.63;7.20;;;;;;;6.55;100.00;95725.97;5024738;28;20076;-74
2023/03/20 04:39:36;;;;;;;15.63;7.07;;;;;;;6.53;100.00;95728.06;5021044;28;20045;-73
2023/03/20 04:42:03;;;;;;;12.00;6.15;;;;;;;6.51;100.00;95719.66;5024596;28;20042;-74
2023/03/20 04:44:29;;;;;;;12.82;6.32;;;;;;;6.49;100.00;95729.56;5017768;28;20042;-74
2023/03/20 04:46:54;;;;;;;16.05;6.82;;;;;;;6.49;100.00;95732.16;5026973;28;20038;-74
2023/03/20 04:49:20;;;;;;;11.40;6.65;;;;;;;6.44;100.00;95725.06;5025384;28;20416;-74
2023/03/20 04:51:46;;;;;;;17.23;6.95;;;;;;;6.50;100.00;95737.16;5019448;28;20037;-74
2023/03/20 04:54:11;;;;;;;11.50;6.15;;;;;;;6.41;100.00;95742.00;5024950;28;20061;-74
2023/03/20 04:56:37;;;;;;;10.82;6.03;;;;;;;6.41;100.00;95736.75;5028896;28;20087;-74
2023/03/20 04:59:02;;;;;;;11.52;6.22;;;;;;;6.38;100.00;95731.22;5027342;28;20051;-73
2023/03/20 05:01:28;;;;;;;11.13;5.75;;;;;;;6.33;100.00;95733.75;5025542;28;20099;-74
2023/03/20 05:03:59;;;;;;;10.65;5.85;;;;;;;6.31;100.00;95741.81;5023900;28;20165;-74
2023/03/20 05:06:29;;;;;;;13.07;6.25;;;;;;;6.28;100.00;95746.72;5031293;28;20044;-74
2023/03/20 05:08:55;;;;;;;12.35;6.20;;;;;;;6.27;100.00;95742.53;5027979;28;20042;-74
2023/03/20 05:11:20;;;;;;;11.93;6.00;;;;;;;6.27;100.00;95750.38;5027966;28;20030;-73
2023/03/20 05:13:46;;;;;;;11.25;6.28;;;;;;;6.24;100.00;95741.19;5019615;28;20096;-73
2023/03/20 05:16:12;;;;;;;9.07;5.32;;;;;;;6.31;100.00;95752.28;5026124;28;20041;-73
2023/03/20 05:18:37;;;;;;;11.23;5.75;;;;;;;6.27;100.00;95756.41;5029435;28;20120;-74
2023/03/20 05:21:03;;;;;;;10.45;6.03;;;;;;;6.27;100.00;95759.00;5020975;28;20064;-74
2023/03/20 05:23:29;;;;;;;10.60;6.05;;;;;;;6.27;100.00;95766.84;5020178;28;20045;-74
2023/03/20 05:25:55;;;;;;;9.30;5.13;;;;;;;6.31;100.00;95752.28;5026557;28;20041;-73
2023/03/20 05:28:21;;;;;;;12.73;6.43;;;;;;;6.22;100.00;95764.13;5031296;28;20552;-74
2023/03/20 05:30:46;;;;;;;11.77;5.93;;;;;;;6.25;100.00;95761.06;5026703;28;20041;-73
2023/03/20 05:33:12;;;;;;;12.20;5.28;;;;;;;6.24;100.00;95772.56;5030495;28;20044;-74
2023/03/20 05:35:37;;;;;;;10.73;5.70;;;;;;;6.28;100.00;95762.41;5024899;28;20661;-74
2023/03/20 05:38:03;;;;;;;12.20;5.93;;;;;;;6.27;100.00;95771.28;5027734;28;20045;-74
2023/03/20 05:40:29;;;;;;;11.05;5.95;;;;;;;6.22;100.00;95771.97;5024639;28;20041;-73
2023/03/20 05:42:54;;;;;;;11.13;5.70;;;;;;;6.27;100.00;95774.69;5025976;28;20699;-74
2023/03/20 05:45:20;;;;;;;12.77;6.10;;;;;;;6.25;100.00;95774.16;5029288;28;20481;-74
2023/03/20 05:47:45;;;;;;;11.20;5.60;;;;;;;6.31;100.00;95788.88;5029157;28;20497;-74
2023/03/20 05:50:11;;;;;;;11.90;5.93;;;;;;;6.26;100.00;95775.72;5027539;28;20037;-74
2023/03/20 05:52:36;;;;;;;15.68;5.45;;;;;;;6.23;100.00;95782.22;5029099;28;20042;-74
2023/03/20 05:55:02;;;;;;;9.50;5.10;;;;;;;6.34;100.00;95785.78;5030404;28;20045;-74
2023/03/20 05:57:28;;;;;;;10.88;5.85;;;;;;;6.28;100.00;95783.31;5021365;28;20048;-74
2023/03/20 05:59:53;;;;;;;10.73;5.88;;;;;;;6.26;100.00;95786.16;5030728;28;20041;-74
2023/03/20 06:02:19;;;;;;;10.05;5.32;;;;;;;6.27;100.00;95785.16;5028951;28;20417;-74
2023/03/20 06:04:45;;;;;;;11.65;5.40;;;;;;;6.27;100.00;95790.38;5026337;28;20501;-73
2023/03/20 06:07:10;;;;;;;12.05;5.53;;;;;;;6.23;100.00;95797.09;5024578;28;20160;-73
2023/03/20 06:09:36;;;;;;;11.25;6.00;;;;;;;6.29;100.00;95803.97;5026685;28;20048;-74
2023/03/20 06:12:02;;;;;;;11.23;5.68;;;;;;;6.34;100.00;95804.09;5031315;28;20042;-75
2023/03/20 06:14:27;;;;;;;10.48;6.35;;;;;;;6.37;100.00;95798.38;5028493;28;20037;-74
2023/03/20 06:16:53;;;;;;;10.63;5.70;;;;;;;6.33;100.00;95797.25;5031609;28;20049;-76
2023/03/20 06:19:20;;;;;;;13.70;6.70;;;;;;;6.41;100.00;95807.34;5029555;28;20041;-76
2023/03/20 06:21:47;;;;;;;11.65;6.53;;;;;;;6.44;100.00;95813.13;5026985;28;20048;-76
2023/03/20 06:24:13;;;;;;;13.82;6.95;;;;;;;6.40;100.00;95813.59;5026419;28;20041;-76
2023/03/20 06:26:39;;;;;;;16.50;7.55;;;;;;;6.47;100.00;95807.44;5031998;28;20160;-76
2023/03/20 06:29:05;;;;;;;14.98;6.90;;;;;;;6.50;100.00;95815.59;5027466;28;20076;-75
2023/03/20 06:31:30;;;;;;;15.23;7.32;;;;;;;6.55;100.00;95814.88;5009063;28;20068;-74
2023/03/20 06:33:56;;;;;;;16.63;9.60;;;;;;;6.49;100.00;95815.84;5023515;28;20030;-74
2023/03/20 06:36:22;;;;;;;19.88;10.70;;;;;;;6.54;100.00;95813.31;5027835;28;20037;-74
2023/03/20 06:38:48;;;;;;;14.25;7.60;;;;;;;6.57;100.00;95818.06;5024892;28;20048;-78
2023/03/20 06:41:13;;;;;;;24.30;14.20;;;;;;;6.63;100.00;95822.34;5030591;28;20453;-75
2023/03/20 06:43:39;;;;;;;15.05;8.40;;;;;;;6.60;100.00;95822.84;5027470;28;20038;-77
2023/03/20 06:46:05;;;;;;;15.43;7.60;;;;;;;6.62;100.00;95826.00;5029894;28;20044;-76
2023/03/20 06:48:32;;;;;;;15.20;8.23;;;;;;;6.71;100.00;95824.59;5026685;28;20095;-75
2023/03/20 06:50:57;;;;;;;16.15;8.48;;;;;;;6.57;100.00;95815.47;5028679;28;20406;-76
2023/03/20 06:53:23;;;;;;;18.10;8.75;;;;;;;6.63;100.00;95819.75;5025582;28;20042;-74
2023/03/20 06:55:49;;;;;;;15.57;8.40;;;;;;;6.67;100.00;95823.47;5026584;28;20045;-74
2023/03/20 06:58:15;;;;;;;14.85;8.00;;;;;;;6.82;100.00;95824.75;5023517;28;20455;-73
2023/03/20 07:00:41;;;;;;;18.85;8.93;;;;;;;6.87;100.00;95817.00;5023577;28;20053;-74
2023/03/20 07:03:07;;;;;;;16.20;9.10;;;;;;;6.85;100.00;95824.28;5023288;28;20034;-74
2023/03/20 07:05:33;;;;;;;13.57;7.15;;;;;;;6.99;100.00;95824.75;5021290;28;20048;-72
2023/03/20 07:07:59;;;;;;;13.93;7.68;;;;;;;7.06;100.00;95818.31;5029376;28;20041;-72
2023/03/20 07:10:26;;;;;;;12.68;7.13;;;;;;;7.20;100.00;95815.41;5025185;28;20413;-72
2023/03/20 07:12:51;;;;;;;16.75;7.82;;;;;;;7.21;100.00;95827.44;5019480;28;20056;-72
2023/03/20 07:15:18;;;;;;;16.52;7.82;;;;;;;7.20;100.00;95820.63;5025745;28;20493;-72
2023/03/20 07:17:43;;;;;;;14.48;7.50;;;;;;;7.32;100.00;95829.16;5022033;28;20045;-72
2023/03/20 07:20:09;;;;;;;15.85;7.15;;;;;;;7.43;100.00;95830.13;5021236;28;20045;-73
2023/03/20 07:22:35;;;;;;;12.35;6.68;;;;;;;7.33;100.00;95836.00;5022286;28;20041;-73
2023/03/20 07:25:02;;;;;;;12.27;6.90;;;;;;;7.52;100.00;95833.09;5019420;28;20038;-73
2023/03/20 07:27:27;;;;;;;13.13;7.30;;;;;;;7.58;100.00;95837.38;5021976;28;20044;-73
2023/03/20 07:29:53;;;;;;;15.70;6.82;;;;;;;7.56;100.00;95840.25;5023851;28;20060;-73
2023/03/20 07:32:19;;;;;;;14.68;6.88;;;;;;;7.72;100.00;95843.84;5022122;28;20043;-73
2023/03/20 07:34:46;;;;;;;12.48;6.43;;;;;;;7.69;100.00;95838.31;5020450;28;20092;-73
2023/03/20 07:37:11;;;;;;;11.82;7.20;;;;;;;7.67;100.00;95842.97;5023198;28;20045;-72
2023/03/20 07:39:37;;;;;;;12.60;7.20;;;;;;;7.85;100.00;95852.41;5025904;28;20091;-72
2023/03/20 07:42:03;;;;;;;12.70;6.63;;;;;;;7.97;100.00;95858.28;5018000;28;20461;-72
2023/03/20 07:44:29;;;;;;;12.48;6.22;;;;;;;8.22;100.00;95867.53;5018948;28;20042;-73
2023/03/20 07:46:54;;;;;;;11.18;7.05;;;;;;;7.86;100.00;95856.59;5017714;28;20042;-73
2023/03/20 07:49:20;;;;;;;9.50;5.35;;;;;;;8.01;100.00;95862.03;5027791;28;20121;-75
2023/03/20 07:51:47;;;;;;;10.88;6.05;;;;;;;7.93;100.00;95865.06;5027002;28;20508;-72
2023/03/20 07:54:14;;;;;;;11.10;6.40;;;;;;;8.09;100.00;95866.06;5026895;28;20048;-73
2023/03/20 07:56:39;;;;;;;10.02;5.93;;;;;;;8.32;100.00;95872.88;5029802;28;20042;-72
2023/03/20 07:59:05;;;;;;;8.30;5.13;;;;;;;8.18;100.00;95855.94;5025144;28;20041;-74
2023/03/20 08:01:31;;;;;;;11.57;5.65;;;;;;;7.99;100.00;95864.09;5025546;28;20046;-74
2023/03/20 08:03:56;;;;;;;12.10;6.25;;;;;;;7.62;100.00;95857.59;5020893;28;20048;-74
2023/03/20 08:06:22;;;;;;;7.82;5.18;;;;;;;7.59;100.00;95860.69;5027191;28;20033;-74
2023/03/20 08:08:50;;;;;;;14.32;6.00;;;;;;;7.53;100.00;95866.09;5027822;28;20125;-73
2023/03/20 08:11:16;;;;;;;9.70;5.53;;;;;;;7.41;100.00;95869.63;5023593;28;20457;-74
2023/03/20 08:13:42;;;;;;;10.48;5.82;;;;;;;7.44;100.00;95853.44;5023536;28;20088;-74
2023/03/20 08:16:08;;;;;;;11.65;6.53;;;;;;;7.51;100.00;95873.41;5026272;28;20038;-74
2023/03/20 08:18:34;;;;;;;10.77;5.93;;;;;;;7.53;100.00;95871.34;5028082;28;20095;-74
2023/03/20 08:21:00;;;;;;;13.20;6.60;;;;;;;7.68;100.00;95866.31;5018776;28;20406;-74
2023/03/20 08:23:26;;;;;;;12.18;6.55;;;;;;;7.59;100.00;95855.47;5027772;28;20045;-74
2023/03/20 08:25:53;;;;;;;12.88;6.90;;;;;;;7.89;100.00;95874.47;5027438;28;20409;-73
2023/03/20 08:28:19;;;;;;;12.93;6.68;;;;;;;7.64;100.00;95875.69;5025682;28;20045;-74
2023/03/20 08:30:46;;;;;;;14.05;7.25;;;;;;;7.65;100.00;95874.66;5027300;28;20104;-74
2023/03/20 08:33:13;;;;;;;13.32;7.25;;;;;;;7.90;100.00;95866.34;5031007;28;20552;-74
2023/03/20 08:35:38;;;;;;;13.93;7.53;;;;;;;7.89;100.00;95869.22;5026276;28;20187;-74
2023/03/20 08:38:04;;;;;;;13.90;7.65;;;;;;;8.23;100.00;95858.59;5032364;28;20479;-74
2023/03/20 08:40:30;;;;;;;13.65;6.97;;;;;;;8.08;100.00;95862.63;5030890;28;20037;-74
2023/03/20 08:42:56;;;;;;;14.55;7.18;;;;;;;8.37;100.00;95864.25;5030218;28;20091;-75
2023/03/20 08:45:24;;;;;;;12.93;6.60;;;;;;;8.35;100.00;95859.25;5031344;28;20033;-74
2023/03/20 08:47:50;;;;;;;12.30;6.60;;;;;;;8.29;100.00;95862.88;5031744;28;20493;-74
2023/03/20 08:50:16;;;;;;;16.63;6.97;;;;;;;8.28;100.00;95853.41;5032038;28;20053;-74
2023/03/20 08:52:43;;;;;;;12.35;6.15;;;;;;;8.10;100.00;95855.31;5031409;28;20037;-74
2023/03/20 08:55:13;;;;;;;13.27;6.93;;;;;;;8.47;100.00;95854.69;5030509;28;20065;-74
2023/03/20 08:57:40;;;;;;;16.20;6.97;;;;;;;8.36;100.00;95855.63;5030249;28;20095;-74
2023/03/20 09:00:09;;;;;;;14.35;6.97;;;;;;;8.49;100.00;95863.13;5024237;28;20065;-75
2023/03/20 09:02:36;;;;;;;11.50;5.85;;;;;;;8.64;100.00;95851.19;5030319;28;20074;-74
2023/03/20 09:05:01;;;;;;;11.32;6.40;;;;;;;8.33;100.00;95863.94;5028413;28;20120;-74
2023/03/20 09:07:27;;;;;;;12.85;6.45;;;;;;;8.38;100.00;95856.16;5030853;28;20060;-75
2023/03/20 09:09:52;;;;;;;11.65;6.63;;;;;;;8.47;100.00;95864.41;5030901;28;20045;-74
2023/03/20 09:12:18;;;;;;;12.43;7.13;;;;;;;8.58;100.00;95860.06;5032087;28;20397;-74
2023/03/20 09:14:43;;;;;;;30.20;8.73;;;;;;;8.61;100.00;95856.94;5030300;28;20068;-75
2023/03/20 09:17:09;;;;;;;650.60;49.85;;;;;;;8.63;100.00;95860.09;5027519;28;20115;-74
2023/03/20 09:19:38;;;;;;;53.72;8.75;;;;;;;8.64;100.00;95849.34;5027062;28;20041;-74
2023/03/20 09:22:04;;;;;;;13.23;7.20;;;;;;;8.88;100.00;95856.09;5032535;28;20186;-75
2023/03/20 09:24:30;;;;;;;86.28;10.75;;;;;;;9.02;100.00;95854.66;5025995;28;20444;-74
2023/03/20 09:26:55;;;;;;;93.38;10.60;;;;;;;9.03;100.00;95851.00;5026411;28;20497;-73
2023/03/20 09:29:21;;;;;;;29.35;7.47;;;;;;;9.25;100.00;95855.34;5025127;28;20045;-73
2023/03/20 09:31:46;;;;;;;13.30;6.57;;;;;;;9.23;100.00;95854.81;5029781;28;20045;-73
2023/03/20 09:34:12;;;;;;;15.00;6.53;;;;;;;9.36;100.00;95859.63;5023020;28;20048;-73
2023/03/20 09:36:37;;;;;;;15.00;6.45;;;;;;;9.03;100.00;95861.50;5026975;28;20045;-72
2023/03/20 09:39:03;;;;;;;19.27;6.47;;;;;;;9.17;100.00;95867.91;5025490;28;20052;-72
2023/03/20 09:41:35;;;;;;;11.73;6.25;;;;;;;9.14;100.00;95857.91;5018870;28;20464;-71
2023/03/20 09:44:38;;;;;;;10.15;5.72;;;;;;;9.27;100.00;95861.16;5021481;28;20055;-71
2023/03/20 09:47:34;;;;;;;12.55;6.32;;;;;;;9.16;100.00;95866.31;5022308;28;20535;-73
2023/03/20 09:50:21;;;;;;;16.95;5.57;;;;;;;9.21;100.00;95859.53;5021616;28;20553;-73
2023/03/20 09:53:17;;;;;;;13.55;6.00;;;;;;;9.25;100.00;95857.97;5027452;28;20045;-72
2023/03/20 09:55:43;;;;;;;10.43;5.60;;;;;;;9.48;100.00;95854.19;5028269;28;20112;-73
2023/03/20 09:58:14;;;;;;;11.02;5.95;;;;;;;9.33;100.00;95849.63;5029285;28;20049;-74
2023/03/20 10:00:45;;;;;;;9.38;5.20;;;;;;;9.57;100.00;95859.75;5027283;28;20053;-71
2023/03/20 10:03:18;;;;;;;12.77;5.70;;;;;;;9.33;100.00;95852.25;5025910;28;20099;-72
2023/03/20 10:06:00;;;;;;;11.50;5.35;;;;;;;9.46;100.00;95851.81;5027052;28;20493;-71
2023/03/20 10:08:31;;;;;;;12.70;5.28;;;;;;;9.38;100.00;95841.81;5028488;28;20037;-72
2023/03/20 10:11:09;;;;;;;9.77;5.15;;;;;;;9.57;100.00;95850.06;5029018;28;20112;-72
2023/03/20 10:13:52;;;;;;;7.63;5.10;;;;;;;9.47;100.00;95850.78;5023473;28;20068;-71
2023/03/20 10:16:23;;;;;;;25.83;5.13;;;;;;;9.60;100.00;95846.91;5027696;28;20096;-71
2023/03/20 10:19:04;;;;;;;11.25;5.03;;;;;;;9.32;100.00;95848.03;5028816;28;20053;-72
2023/03/20 10:21:39;;;;;;;14.73;5.75;;;;;;;9.35;100.00;95842.28;5023650;28;20037;-72
2023/03/20 10:24:18;;;;;;;25.48;5.63;;;;;;;9.45;100.00;95842.38;5026247;28;20053;-73
2023/03/20 10:26:46;;;;;;;9.43;4.72;;;;;;;9.34;100.00;95840.72;5027727;28;20049;-72
2023/03/20 10:29:33;;;;;;;63.28;7.05;;;;;;;9.78;100.00;95845.69;5029339;28;20475;-73
2023/03/20 10:32:18;;;;;;;15.27;4.75;;;;;;;9.92;100.00;95837.34;5022703;28;20067;-73
2023/03/20 10:34:52;;;;;;;9.55;3.60;;;;;;;10.07;100.00;95837.41;5026360;28;20095;-71
2023/03/20 10:37:17;;;;;;;5.68;3.50;;;;;;;10.17;100.00;95842.72;5025117;28;20063;-73
2023/03/20 10:39:49;;;;;;;16.52;3.83;;;;;;;10.44;100.00;95841.75;5031131;28;20459;-73
2023/03/20 10:42:27;;;;;;;4.07;2.50;;;;;;;10.32;100.00;95835.91;5026381;28;20041;-73
2023/03/20 10:45:01;;;;;;;5.28;2.80;;;;;;;10.14;100.00;95832.72;5020311;28;20046;-73
2023/03/20 10:47:32;;;;;;;4.05;2.20;;;;;;;10.42;100.00;95832.56;5012594;28;20494;-72
2023/03/20 10:50:04;;;;;;;5.95;2.28;;;;;;;10.54;100.00;95820.72;5028864;28;20040;-73
2023/03/20 10:52:34;;;;;;;4.80;2.22;;;;;;;10.63;100.00;95817.56;5026655;28;20120;-73
2023/03/20 10:55:10;;;;;;;5.13;2.40;;;;;;;10.56;100.00;95813.34;5030465;28;20049;-73
2023/03/20 10:57:46;;;;;;;5.00;2.30;;;;;;;11.35;100.00;95813.09;5030278;28;20037;-74
2023/03/20 11:00:21;;;;;;;3.47;2.20;;;;;;;12.20;100.00;95816.78;5017032;28;20045;-73
2023/03/20 11:02:47;;;;;;;4.05;2.58;;;;;;;13.19;100.00;95809.75;5026223;28;20137;-73
2023/03/20 11:05:24;;;;;;;5.35;2.10;;;;;;;12.10;100.00;95807.06;5019491;28;20093;-73
2023/03/20 11:07:59;;;;;;;4.20;2.10;;;;;;;12.20;100.00;95805.44;5023713;28;20068;-73
2023/03/20 11:10:26;;;;;;;3.20;1.77;;;;;;;12.72;100.00;95800.63;5031723;28;20037;-73
2023/03/20 11:12:51;;;;;;;5.35;1.90;;;;;;;12.73;100.00;95804.84;5028921;28;20646;-73
2023/03/20 11:15:30;;;;;;;3.53;1.80;;;;;;;13.20;100.00;95800.75;5029358;28;20037;-73
2023/03/20 11:18:03;;;;;;;2.58;1.73;;;;;;;13.75;100.00;95794.41;5020635;28;20128;-74
2023/03/20 11:20:34;;;;;;;3.58;1.80;;;;;;;14.70;100.00;95792.66;5025022;28;20041;-72
2023/03/20 11:23:05;;;;;;;3.45;1.80;;;;;;;14.47;100.00;95798.81;5023777;28;20516;-73
2023/03/20 11:25:35;;;;;;;2.60;1.58;;;;;;;15.24;94.67;95789.66;5024014;28;20041;-74
2023/03/20 11:28:20;;;;;;;2.70;1.80;;;;;;;14.19;100.00;95794.16;5030216;28;20045;-73
2023/03/20 11:30:47;;;;;;;1.73;1.60;;;;;;;14.52;99.01;95796.88;5026222;28;20497;-73
2023/03/20 11:33:15;;;;;;;2.63;1.70;;;;;;;13.97;100.00;95791.25;5028496;28;20516;-72
2023/03/20 11:35:46;;;;;;;3.22;2.00;;;;;;;14.78;93.85;95793.06;5024614;28;20045;-74
2023/03/20 11:38:19;;;;;;;2.60;1.70;;;;;;;14.09;93.64;95790.84;5026052;28;20065;-73